createdAt,value
2023-02-26T00:00:15.409Z,99320.24
2023-02-26T00:02:46.795Z,99320.55
2023-02-26T00:05:16.622Z,99324.81
2023-02-26T00:07:51.233Z,99321.32
2023-02-26T00:10:20.328Z,99325.91
2023-02-26T00:12:49.626Z,99326.78
2023-02-26T00:15:22.267Z,99325.20
2023-02-26T00:17:57.927Z,99331.32
2023-02-26T00:20:32.069Z,99332.91
2023-02-26T00:23:01.468Z,99336.61
2023-02-26T00:25:43.101Z,99333.81
2023-02-26T00:28:23.910Z,99337.33
2023-02-26T00:30:53.854Z,99348.43
2023-02-26T00:33:29.906Z,99348.15
2023-02-26T00:36:25.391Z,99354.88
2023-02-26T00:39:02.113Z,99363.67
2023-02-26T00:41:36.472Z,99359.83
2023-02-26T00:44:06.117Z,99361.23
2023-02-26T00:46:56.847Z,99367.89
2023-02-26T00:49:41.279Z,99370.89
2023-02-26T00:52:15.570Z,99371.80
2023-02-26T00:54:54.242Z,99369.02
2023-02-26T00:57:26.101Z,99363.06
2023-02-26T01:00:14.320Z,99356.38
2023-02-26T01:02:46.776Z,99354.26
2023-02-26T01:05:19.026Z,99351.61
2023-02-26T01:07:54.832Z,99354.08
2023-02-26T01:10:26.364Z,99359.53
2023-02-26T01:12:57.296Z,99361.11
2023-02-26T01:15:26.466Z,99367.23
2023-02-26T01:18:01.127Z,99367.05
2023-02-26T01:20:38.913Z,99371.98
2023-02-26T01:23:16.312Z,99372.67
2023-02-26T01:25:55.252Z,99376.00
2023-02-26T01:28:24.748Z,99380.91
2023-02-26T01:30:55.184Z,99397.92
2023-02-26T01:33:30.544Z,99411.62
2023-02-26T01:36:08.724Z,99413.03
2023-02-26T01:38:42.939Z,99412.84
2023-02-26T01:41:17.560Z,99408.45
2023-02-26T01:44:10.717Z,99412.86
2023-02-26T01:46:39.659Z,99418.64
2023-02-26T01:49:21.620Z,99421.45
2023-02-26T01:52:19.614Z,99418.29
2023-02-26T01:54:53.802Z,99424.61
2023-02-26T01:57:23.105Z,99419.70
2023-02-26T01:59:55.681Z,99413.05
2023-02-26T02:02:26.568Z,99409.17
2023-02-26T02:04:55.525Z,99408.46
2023-02-26T02:07:25.468Z,99410.04
2023-02-26T02:09:54.845Z,99415.63
2023-02-26T02:12:29.038Z,99415.30
2023-02-26T02:15:09.399Z,99410.95
2023-02-26T02:17:51.953Z,99404.68
2023-02-26T02:20:28.010Z,99401.91
2023-02-26T02:23:09.543Z,99399.48
2023-02-26T02:25:50.519Z,99405.64
2023-02-26T02:28:35.350Z,99405.63
2023-02-26T02:31:07.844Z,99411.22
2023-02-26T02:33:56.282Z,99420.65
2023-02-26T02:36:29.608Z,99422.73
2023-02-26T02:39:02.589Z,99430.27
2023-02-26T02:41:57.792Z,99445.54
2023-02-26T02:44:26.890Z,99463.43
2023-02-26T02:46:57.088Z,99463.08
2023-02-26T02:49:57.233Z,99468.17
2023-02-26T02:52:44.964Z,99468.39
2023-02-26T02:55:21.379Z,99471.02
2023-02-26T02:58:01.170Z,99475.73
2023-02-26T03:00:32.128Z,99483.45
2023-02-26T03:03:20.362Z,99492.74
2023-02-26T03:05:51.005Z,99501.32
2023-02-26T03:08:25.204Z,99502.52
2023-02-26T03:10:58.514Z,99504.48
2023-02-26T03:13:30.974Z,99507.11
2023-02-26T03:16:51.009Z,99505.02
2023-02-26T03:19:26.716Z,99500.48
2023-02-26T03:22:11.179Z,99502.41
2023-02-26T03:25:15.806Z,99506.27
2023-02-26T03:27:54.010Z,99492.92
2023-02-26T03:30:34.780Z,99504.15
2023-02-26T03:33:18.627Z,99510.10
2023-02-26T03:36:11.684Z,99516.77
2023-02-26T03:38:57.872Z,99518.89
2023-02-26T03:41:37.003Z,99521.17
2023-02-26T03:44:13.482Z,99514.16
2023-02-26T03:46:49.004Z,99520.30
2023-02-26T03:49:37.059Z,99521.17
2023-02-26T03:52:08.625Z,99520.12
2023-02-26T03:55:25.775Z,99530.30
2023-02-26T03:58:03.537Z,99539.95
2023-02-26T04:01:00.196Z,99549.78
2023-02-26T04:03:48.517Z,99559.78
2023-02-26T04:06:17.206Z,99565.91
2023-02-26T04:08:46.506Z,99559.61
2023-02-26T04:11:20.315Z,99562.23
2023-02-26T04:13:50.949Z,99578.36
2023-02-26T04:16:20.636Z,99586.09
2023-02-26T04:18:50.284Z,99595.55
2023-02-26T04:21:20.693Z,99591.70
2023-02-26T04:23:49.588Z,99587.84
2023-02-26T04:26:18.505Z,99605.38
2023-02-26T04:28:47.661Z,99618.89
2023-02-26T04:31:16.501Z,99636.25
2023-02-26T04:33:45.750Z,99651.50
2023-02-26T04:36:18.222Z,99656.23
2023-02-26T04:38:47.635Z,99667.98
2023-02-26T04:41:16.614Z,99682.88
2023-02-26T04:43:46.739Z,99678.14
2023-02-26T04:46:25.588Z,99673.93
2023-02-26T04:48:54.555Z,99683.56
2023-02-26T04:51:26.207Z,99692.49
2023-02-26T04:53:54.893Z,99701.09
2023-02-26T04:56:24.028Z,99712.30
2023-02-26T04:58:53.597Z,99725.96
2023-02-26T05:01:26.227Z,99735.26
2023-02-26T05:03:58.239Z,99733.68
2023-02-26T05:06:27.069Z,99738.43
2023-02-26T05:08:57.176Z,99737.02
2023-02-26T05:11:26.035Z,99731.77
2023-02-26T05:13:54.826Z,99731.04
2023-02-26T05:16:24.903Z,99734.34
2023-02-26T05:18:54.650Z,99728.73
2023-02-26T05:21:26.075Z,99728.23
2023-02-26T05:23:55.504Z,99727.34
2023-02-26T05:26:27.186Z,99726.98
2023-02-26T05:28:56.973Z,99728.20
2023-02-26T05:31:27.149Z,99721.55
2023-02-26T05:33:56.803Z,99722.44
2023-02-26T05:36:27.014Z,99727.36
2023-02-26T05:38:56.124Z,99731.74
2023-02-26T05:41:25.266Z,99732.42
2023-02-26T05:43:53.915Z,99739.73
2023-02-26T05:46:23.132Z,99746.15
2023-02-26T05:48:51.987Z,99753.42
2023-02-26T05:51:21.627Z,99763.56
2023-02-26T05:53:50.386Z,99766.54
2023-02-26T05:56:19.274Z,99767.45
2023-02-26T05:58:48.517Z,99773.84
2023-02-26T06:01:17.985Z,99779.83
2023-02-26T06:03:47.068Z,99784.53
2023-02-26T06:06:20.038Z,99798.34
2023-02-26T06:08:52.023Z,99807.55
2023-02-26T06:11:20.910Z,99812.09
2023-02-26T06:13:50.201Z,99815.38
2023-02-26T06:16:20.785Z,99818.13
2023-02-26T06:18:53.423Z,99814.45
2023-02-26T06:21:22.000Z,99813.73
2023-02-26T06:23:50.889Z,99814.55
2023-02-26T06:26:20.611Z,99809.11
2023-02-26T06:28:51.237Z,99806.33
2023-02-26T06:31:24.675Z,99807.38
2023-02-26T06:33:54.029Z,99808.77
2023-02-26T06:36:22.776Z,99812.26
2023-02-26T06:38:51.919Z,99809.91
2023-02-26T06:41:23.254Z,99811.84
2023-02-26T06:43:52.576Z,99817.66
2023-02-26T06:46:21.472Z,99820.48
2023-02-26T06:48:52.696Z,99825.36
2023-02-26T06:51:21.691Z,99828.52
2023-02-26T06:53:50.786Z,99829.92
2023-02-26T06:56:20.085Z,99842.36
2023-02-26T06:58:49.605Z,99846.79
2023-02-26T07:01:23.050Z,99851.56
2023-02-26T07:03:51.888Z,99858.27
2023-02-26T07:06:27.827Z,99863.40
2023-02-26T07:08:57.202Z,99867.78
2023-02-26T07:11:28.569Z,99867.31
2023-02-26T07:13:57.589Z,99870.17
2023-02-26T07:16:26.884Z,99876.09
2023-02-26T07:18:57.625Z,99876.53
2023-02-26T07:21:27.129Z,99870.27
2023-02-26T07:24:01.634Z,99863.86
2023-02-26T07:26:31.211Z,99869.50
2023-02-26T07:29:00.115Z,99874.73
2023-02-26T07:31:29.217Z,99877.52
2023-02-26T07:33:59.182Z,99880.45
2023-02-26T07:36:30.494Z,99880.38
2023-02-26T07:39:00.638Z,99884.70
2023-02-26T07:41:31.875Z,99884.70
2023-02-26T07:44:02.082Z,99884.81
2023-02-26T07:46:31.109Z,99894.64
2023-02-26T07:49:00.775Z,99900.48
2023-02-26T07:51:32.403Z,99892.70
2023-02-26T07:54:02.968Z,99895.48
2023-02-26T07:56:32.878Z,99894.67
2023-02-26T07:59:02.093Z,99898.58
2023-02-26T08:01:31.646Z,99898.96
2023-02-26T08:04:01.456Z,99903.48
2023-02-26T08:06:30.795Z,99899.89
2023-02-26T08:09:02.265Z,99907.88
2023-02-26T08:11:36.968Z,99918.35
2023-02-26T08:15:02.415Z,99913.23
2023-02-26T08:17:38.747Z,99914.24
2023-02-26T08:20:09.120Z,99906.14
2023-02-26T08:22:37.967Z,99912.41
2023-02-26T08:25:07.832Z,99913.98
2023-02-26T08:27:36.476Z,99909.45
2023-02-26T08:30:07.833Z,99908.94
2023-02-26T08:32:42.779Z,99915.63
2023-02-26T08:35:13.903Z,99922.53
2023-02-26T08:37:45.338Z,99927.28
2023-02-26T08:40:15.332Z,99932.17
2023-02-26T08:42:44.196Z,99936.88
2023-02-26T08:45:13.273Z,99941.95
2023-02-26T08:47:55.708Z,99945.68
2023-02-26T08:50:26.709Z,99953.48
2023-02-26T08:52:55.799Z,99965.53
2023-02-26T08:55:31.869Z,99964.39
2023-02-26T08:58:01.859Z,99971.27
2023-02-26T09:00:31.308Z,99977.96
2023-02-26T09:03:00.742Z,99977.83
2023-02-26T09:05:31.704Z,99983.08
2023-02-26T09:08:05.308Z,99987.44
2023-02-26T09:10:34.909Z,99993.70
2023-02-26T09:13:03.573Z,99999.66
2023-02-26T09:15:32.591Z,100001.64
2023-02-26T09:18:01.996Z,100006.74
2023-02-26T09:20:30.986Z,100016.40
2023-02-26T09:22:59.775Z,100025.36
2023-02-26T09:25:28.766Z,100021.35
2023-02-26T09:27:58.843Z,100021.23
2023-02-26T09:30:28.394Z,100025.65
2023-02-26T09:32:57.589Z,100024.77
2023-02-26T09:35:26.478Z,100024.44
2023-02-26T09:37:55.474Z,100024.78
2023-02-26T09:40:51.196Z,100029.89
2023-02-26T09:43:42.201Z,100032.90
2023-02-26T09:46:34.414Z,100036.64
2023-02-26T09:49:22.266Z,100037.82
2023-02-26T09:52:19.644Z,100035.32
2023-02-26T09:54:52.036Z,100027.55
2023-02-26T09:57:37.377Z,100037.69
2023-02-26T10:00:38.440Z,100042.05
2023-02-26T10:03:12.025Z,100044.06
2023-02-26T10:06:10.125Z,100040.98
2023-02-26T10:09:01.020Z,100042.75
2023-02-26T10:11:44.954Z,100038.34
2023-02-26T10:14:22.964Z,100038.75
2023-02-26T10:17:00.082Z,100035.16
2023-02-26T10:19:33.124Z,100039.52
2023-02-26T10:22:13.897Z,100043.38
2023-02-26T10:24:49.510Z,100041.74
2023-02-26T10:27:39.638Z,100040.27
2023-02-26T10:30:22.468Z,100039.76
2023-02-26T10:32:54.224Z,100042.89
2023-02-26T10:35:28.214Z,100043.57
2023-02-26T10:38:03.137Z,100044.64
2023-02-26T10:40:35.312Z,100051.60
2023-02-26T10:43:38.822Z,100065.23
2023-02-26T10:46:21.433Z,100070.05
2023-02-26T10:49:27.914Z,100072.79
2023-02-26T10:51:58.640Z,100073.39
2023-02-26T10:54:34.479Z,100072.73
2023-02-26T10:57:04.497Z,100077.48
2023-02-26T10:59:34.316Z,100077.76
2023-02-26T11:02:03.515Z,100081.73
2023-02-26T11:04:32.261Z,100082.94
2023-02-26T11:07:02.739Z,100079.20
2023-02-26T11:09:37.250Z,100085.64
2023-02-26T11:12:14.034Z,100089.11
2023-02-26T11:14:43.527Z,100091.55
2023-02-26T11:17:23.789Z,100095.79
2023-02-26T11:20:15.670Z,100101.77
2023-02-26T11:22:58.368Z,100098.45
2023-02-26T11:25:30.102Z,100099.55
2023-02-26T11:28:03.506Z,100101.23
2023-02-26T11:30:38.828Z,100097.38
2023-02-26T11:33:19.703Z,100105.59
2023-02-26T11:35:51.434Z,100110.88
2023-02-26T11:38:23.002Z,100103.97
2023-02-26T11:40:56.622Z,100103.33
2023-02-26T11:43:28.791Z,100098.04
2023-02-26T11:46:00.714Z,100095.52
2023-02-26T11:48:43.246Z,100091.42
2023-02-26T11:51:17.040Z,100099.47
2023-02-26T11:53:50.764Z,100095.61
2023-02-26T11:56:27.235Z,100097.58
2023-02-26T11:59:06.347Z,100095.89
2023-02-26T12:01:36.889Z,100096.39
2023-02-26T12:04:12.741Z,100103.20
2023-02-26T12:06:43.668Z,100109.84
2023-02-26T12:09:14.601Z,100106.79
2023-02-26T12:11:56.820Z,100107.68
2023-02-26T12:15:10.763Z,100115.91
2023-02-26T12:18:20.336Z,100122.23
2023-02-26T12:21:08.274Z,100122.48
2023-02-26T12:23:37.973Z,100122.85
2023-02-26T12:26:09.808Z,100127.06
2023-02-26T12:28:52.833Z,100134.42
2023-02-26T12:32:08.026Z,100138.46
2023-02-26T12:34:59.541Z,100144.25
2023-02-26T12:38:01.289Z,100147.71
2023-02-26T12:41:35.519Z,100155.48
2023-02-26T12:44:07.602Z,100165.23
2023-02-26T12:46:49.939Z,100174.42
2023-02-26T12:49:23.700Z,100174.66
2023-02-26T12:52:06.653Z,100183.13
2023-02-26T12:55:00.113Z,100192.16
2023-02-26T12:57:43.098Z,100200.26
2023-02-26T13:00:48.054Z,100205.38
2023-02-26T13:03:32.605Z,100208.59
2023-02-26T13:06:16.452Z,100204.15
2023-02-26T13:09:04.909Z,100206.86
2023-02-26T13:12:05.520Z,100221.93
2023-02-26T13:14:48.349Z,100226.07
2023-02-26T13:17:53.011Z,100218.20
2023-02-26T13:20:25.651Z,100216.55
2023-02-26T13:22:59.049Z,100226.15
2023-02-26T13:25:35.420Z,100230.30
2023-02-26T13:28:22.597Z,100229.46
2023-02-26T13:30:56.095Z,100228.44
2023-02-26T13:33:26.839Z,100220.35
2023-02-26T13:35:54.343Z,100221.17
2023-02-26T13:38:28.130Z,100219.48
2023-02-26T13:41:12.247Z,100216.15
2023-02-26T13:43:58.379Z,100215.93
2023-02-26T13:46:37.100Z,100210.44
2023-02-26T13:49:14.165Z,100204.95
2023-02-26T13:51:47.825Z,100210.00
2023-02-26T13:54:22.104Z,100214.34
2023-02-26T13:57:08.715Z,100209.33
2023-02-26T14:00:19.069Z,100201.68
2023-02-26T14:02:52.654Z,100198.48
2023-02-26T14:05:45.262Z,100192.67
2023-02-26T14:08:20.970Z,100185.02
2023-02-26T14:10:52.382Z,100178.07
2023-02-26T14:13:22.843Z,100179.52
2023-02-26T14:16:12.828Z,100178.52
2023-02-26T14:18:43.185Z,100176.45
2023-02-26T14:21:27.297Z,100176.81
2023-02-26T14:23:57.832Z,100171.40
2023-02-26T14:26:28.607Z,100181.22
2023-02-26T14:29:05.924Z,100194.17
2023-02-26T14:32:25.507Z,100206.42
2023-02-26T14:34:54.936Z,100211.80
2023-02-26T14:37:24.866Z,100212.23
2023-02-26T14:39:59.148Z,100199.81
2023-02-26T14:42:35.799Z,100195.31
2023-02-26T14:45:30.220Z,100190.11
2023-02-26T14:47:59.362Z,100181.87
2023-02-26T14:50:31.730Z,100190.98
2023-02-26T14:53:28.749Z,100191.86
2023-02-26T14:56:22.738Z,100194.31
2023-02-26T14:59:10.663Z,100188.67
2023-02-26T15:01:53.260Z,100172.86
2023-02-26T15:04:46.936Z,100163.92
2023-02-26T15:07:27.466Z,100160.91
2023-02-26T15:09:58.545Z,100159.86
2023-02-26T15:12:49.671Z,100165.29
2023-02-26T15:15:57.056Z,100168.39
2023-02-26T15:18:38.616Z,100173.92
2023-02-26T15:21:23.682Z,100187.23
2023-02-26T15:23:56.881Z,100199.30
2023-02-26T15:26:29.773Z,100204.36
2023-02-26T15:29:07.841Z,100215.73
2023-02-26T15:32:14.924Z,100227.05
2023-02-26T15:34:49.317Z,100241.98
2023-02-26T15:37:27.252Z,100251.64
2023-02-26T15:40:05.246Z,100260.40
2023-02-26T15:42:39.780Z,100268.06
2023-02-26T15:45:49.513Z,100280.59
2023-02-26T15:48:38.208Z,100292.78
2023-02-26T15:51:23.391Z,100297.33
2023-02-26T15:53:52.105Z,100305.61
2023-02-26T15:56:26.298Z,100306.36
2023-02-26T15:59:01.244Z,100305.73
2023-02-26T16:01:47.363Z,100306.95
2023-02-26T16:05:20.867Z,100309.51
2023-02-26T16:07:52.264Z,100299.84
2023-02-26T16:10:52.903Z,100304.23
2023-02-26T16:13:45.673Z,100328.45
2023-02-26T16:16:41.324Z,100335.65
2023-02-26T16:19:47.879Z,100334.04
2023-02-26T16:22:32.529Z,100357.59
2023-02-26T16:25:17.461Z,100359.10
2023-02-26T16:28:28.688Z,100355.23
2023-02-26T16:30:57.871Z,100360.19
2023-02-26T16:33:26.252Z,100353.70
2023-02-26T16:36:03.300Z,100354.56
2023-02-26T16:38:47.866Z,100350.55
2023-02-26T16:41:15.520Z,100347.55
2023-02-26T16:43:57.567Z,100355.58
2023-02-26T16:46:48.936Z,100356.38
2023-02-26T16:49:28.931Z,100361.40
2023-02-26T16:52:00.743Z,100373.05
2023-02-26T16:54:32.107Z,100375.11
2023-02-26T16:57:04.769Z,100379.46
2023-02-26T16:59:43.076Z,100394.69
2023-02-26T17:02:19.226Z,100379.42
2023-02-26T17:05:01.290Z,100375.85
2023-02-26T17:07:34.004Z,100372.95
2023-02-26T17:10:29.537Z,100379.92
2023-02-26T17:13:22.085Z,100383.07
2023-02-26T17:15:50.972Z,100386.34
2023-02-26T17:18:41.455Z,100387.33
2023-02-26T17:21:10.969Z,100392.77
2023-02-26T17:23:41.765Z,100397.47
2023-02-26T17:26:10.033Z,100399.56
2023-02-26T17:33:53.198Z,100417.24
2023-02-26T17:36:26.240Z,100427.72
2023-02-26T17:38:56.502Z,100430.81
2023-02-26T17:41:28.200Z,100415.87
2023-02-26T17:43:58.014Z,100402.69
2023-02-26T17:46:26.339Z,100400.39
2023-02-26T17:48:54.150Z,100392.85
2023-02-26T17:51:21.512Z,100387.41
2023-02-26T17:53:56.300Z,100391.79
2023-02-26T17:56:27.032Z,100383.39
2023-02-26T17:58:55.601Z,100383.89
2023-02-26T18:01:31.675Z,100389.33
2023-02-26T18:04:01.075Z,100395.27
2023-02-26T18:06:35.051Z,100403.28
2023-02-26T18:09:06.745Z,100407.44
2023-02-26T18:11:35.388Z,100412.46
2023-02-26T18:14:05.111Z,100412.58
2023-02-26T18:16:40.892Z,100405.36
2023-02-26T18:19:10.778Z,100393.05
2023-02-26T18:21:38.255Z,100389.14
2023-02-26T18:24:32.364Z,100384.01
2023-02-26T18:27:04.321Z,100371.69
2023-02-26T18:29:32.759Z,100372.55
2023-02-26T18:32:02.873Z,100371.31
2023-02-26T18:34:30.887Z,100375.64
2023-02-26T18:36:58.284Z,100388.36
2023-02-26T18:39:31.580Z,100392.01
2023-02-26T18:41:59.616Z,100396.54
2023-02-26T18:44:28.525Z,100409.60
2023-02-26T18:46:57.598Z,100414.81
2023-02-26T18:49:28.804Z,100415.34
2023-02-26T18:51:56.134Z,100438.25
2023-02-26T18:54:23.737Z,100450.09
2023-02-26T18:56:53.405Z,100457.78
2023-02-26T18:59:21.584Z,100439.58
2023-02-26T19:01:50.710Z,100432.58
2023-02-26T19:04:18.529Z,100437.64
2023-02-26T19:06:49.507Z,100441.61
2023-02-26T19:09:17.582Z,100445.44
2023-02-26T19:11:45.461Z,100452.05
2023-02-26T19:14:16.186Z,100455.35
2023-02-26T19:16:44.528Z,100467.57
2023-02-26T19:19:19.273Z,100477.05
2023-02-26T19:21:46.828Z,100476.91
2023-02-26T19:24:17.498Z,100468.72
2023-02-26T19:26:49.068Z,100465.38
2023-02-26T19:29:19.410Z,100474.61
2023-02-26T19:31:49.148Z,100484.85
2023-02-26T19:34:17.112Z,100476.95
2023-02-26T19:36:47.695Z,100472.23
2023-02-26T19:39:16.246Z,100468.23
2023-02-26T19:41:44.653Z,100466.12
2023-02-26T19:44:12.464Z,100469.95
2023-02-26T19:46:41.704Z,100474.14
2023-02-26T19:49:11.374Z,100467.67
2023-02-26T19:51:39.608Z,100467.85
2023-02-26T19:54:08.183Z,100462.39
2023-02-26T19:56:42.337Z,100465.48
2023-02-26T19:59:26.031Z,100465.44
2023-02-26T20:02:03.210Z,100472.08
2023-02-26T20:04:35.519Z,100468.05
2023-02-26T20:07:04.082Z,100460.34
2023-02-26T20:09:35.089Z,100461.79
2023-02-26T20:12:02.684Z,100459.54
2023-02-26T20:14:30.578Z,100453.95
2023-02-26T20:17:11.740Z,100441.13
2023-02-26T20:19:41.354Z,100435.35
2023-02-26T20:22:11.571Z,100433.95
2023-02-26T20:24:51.411Z,100430.46
2023-02-26T20:27:19.440Z,100422.24
2023-02-26T20:29:50.593Z,100427.99
2023-02-26T20:32:18.703Z,100439.17
2023-02-26T20:34:46.958Z,100452.17
2023-02-26T20:37:17.527Z,100462.02
2023-02-26T20:39:49.290Z,100484.90
2023-02-26T20:42:18.275Z,100512.86
2023-02-26T20:44:47.882Z,100526.28
2023-02-26T20:47:18.351Z,100526.14
2023-02-26T20:49:46.544Z,100526.36
2023-02-26T20:52:14.172Z,100527.56
2023-02-26T20:54:41.608Z,100521.95
2023-02-26T20:57:10.596Z,100521.95
2023-02-26T20:59:40.010Z,100517.40
2023-02-26T21:02:08.772Z,100521.77
2023-02-26T21:04:38.713Z,100530.13
2023-02-26T21:07:23.980Z,100523.61
2023-02-26T21:09:55.636Z,100526.01
2023-02-26T21:12:24.369Z,100534.23
2023-02-26T21:14:55.465Z,100544.70
2023-02-26T21:17:23.936Z,100548.36
2023-02-26T21:19:54.484Z,100549.08
2023-02-26T21:22:23.159Z,100557.15
2023-02-26T21:24:51.399Z,100555.02
2023-02-26T21:27:19.330Z,100560.92
2023-02-26T21:29:47.805Z,100564.52
2023-02-26T21:32:16.191Z,100576.13
2023-02-26T21:34:44.299Z,100574.17
2023-02-26T21:37:13.746Z,100579.92
2023-02-26T21:39:41.599Z,100590.85
2023-02-26T21:42:11.319Z,100595.18
2023-02-26T21:44:38.979Z,100605.49
2023-02-26T21:47:07.662Z,100601.69
2023-02-26T21:49:35.767Z,100607.42
2023-02-26T21:52:07.494Z,100614.35
2023-02-26T21:54:36.270Z,100618.63
2023-02-26T21:57:06.501Z,100620.52
2023-02-26T21:59:33.848Z,100624.17
2023-02-26T22:02:01.843Z,100619.72
2023-02-26T22:04:33.880Z,100621.22
2023-02-26T22:07:03.219Z,100627.65
2023-02-26T22:09:30.740Z,100628.14
2023-02-26T22:12:02.096Z,100628.24
2023-02-26T22:14:30.360Z,100631.70
2023-02-26T22:17:05.500Z,100634.27
2023-02-26T22:19:33.267Z,100634.25
2023-02-26T22:22:01.362Z,100635.46
2023-02-26T22:24:29.032Z,100641.02
2023-02-26T22:26:59.014Z,100630.81
2023-02-26T22:29:27.290Z,100627.63
2023-02-26T22:31:56.321Z,100627.42
2023-02-26T22:34:24.096Z,100628.09
2023-02-26T22:36:52.232Z,100631.52
2023-02-26T22:39:20.452Z,100626.23
2023-02-26T22:41:47.961Z,100630.74
2023-02-26T22:44:15.721Z,100634.60
2023-02-26T22:46:44.308Z,100643.27
2023-02-26T22:49:11.682Z,100648.11
2023-02-26T22:51:39.951Z,100648.46
2023-02-26T22:54:08.006Z,100644.45
2023-02-26T22:56:35.905Z,100636.71
2023-02-26T22:59:03.438Z,100640.86
2023-02-26T23:01:30.996Z,100644.64
2023-02-26T23:03:59.168Z,100652.33
2023-02-26T23:06:26.739Z,100649.88
2023-02-26T23:08:55.820Z,100649.39
2023-02-26T23:11:24.641Z,100649.52
2023-02-26T23:13:59.277Z,100654.21
2023-02-26T23:16:47.068Z,100637.76
2023-02-26T23:19:15.240Z,100637.06
2023-02-26T23:21:42.903Z,100651.23
2023-02-26T23:24:12.926Z,100661.83
2023-02-26T23:26:40.934Z,100661.25
2023-02-26T23:29:09.278Z,100654.91
2023-02-26T23:31:36.967Z,100653.52
2023-02-26T23:34:06.585Z,100657.37
2023-02-26T23:36:34.300Z,100664.81
2023-02-26T23:39:01.860Z,100672.63
2023-02-26T23:41:29.311Z,100673.27
2023-02-26T23:43:57.498Z,100677.27
2023-02-26T23:46:25.915Z,100677.14
2023-02-26T23:48:57.172Z,100676.77
2023-02-26T23:51:24.912Z,100682.15
2023-02-26T23:53:53.046Z,100689.27
2023-02-26T23:56:23.060Z,100688.91
2023-02-26T23:58:51.131Z,100679.01
